Hauptseite
METAR-TAF:

METAR-TAF

Flughäfen :

Jekaterinburg, Russland

Flughafen Jekaterinburg

Breite: 56-50N, Länge: 060-38E, Höhe: 237 m

Beobachtung

Neuester Wetterbericht von vor 32 Minuten, um 07:00 UTC
Wind 8 kt aus Süd/Südost
Temperatur -2°C
Luftfeuchtigkeit 86%
Luftdruck 1016 hPa
Sichtweite 10 km oder mehr
keine Wolken unter 1500 m und keine Kumulonimbus oder Gewitterwolken

METAR: USSS 220700Z 15004MPS CAVOK M02/M04 Q1016 R08L/290040 NOSIG RMK QFE742/0990

Zeit: 12:32 (07:32 UTC)

Prognose

Neuester Wetterbericht von vor 2 Stunden und 43 Minuten, um 04:49 UTC
Gültige Prognose vom 22 um 06 UTC bis 23 um 06 UTC
Wind 10 kt aus Südost
Sichtweite 10 km oder mehr
Aufgelockert bewölkt in der Höhe von 2000 ft

TAF: USSS 220449Z 2206/2306 14005MPS 9999 SCT020

Wetterbeobachtungen und Prognosen von mehr als 4000 Flughäfen (METAR und TAF Bericht).

Die verfügbaren Stationen werden durch gelbe und rote Markierungen auf der Karte dargestellt.

Führen Sie die Maus auf sie, um den Namen der Station zu sehen.

Darauf klicken, um die Beobachtung von Wetterbeobachtungen und Prognosen zu sehen.

Um die Karte zu ändern : klicken Sie auf den grünen Tasten mit einem schwarzen Kreuz Zum Vergrößern, auf den grünen Button mit einem Gedankenstrich zu verkleinern, oder auf die grünen Pfeile für benachbarte Karten.


METAR-TAF: